sensor_id;sensor_type;location;lat;lon;timestamp;pressure;altitude;pressure_sealevel;temperature
45701;BMP280;36277;32.852;-116.998;2023-07-16T00:01:01;99554.06;;;23.56
45701;BMP280;36277;32.852;-116.998;2023-07-16T00:03:27;99552.53;;;23.47
45701;BMP280;36277;32.852;-116.998;2023-07-16T00:05:53;99559.28;;;23.38
45701;BMP280;36277;32.852;-116.998;2023-07-16T00:08:20;99560.50;;;23.29
45701;BMP280;36277;32.852;-116.998;2023-07-16T00:10:46;99564.69;;;23.25
45701;BMP280;36277;32.852;-116.998;2023-07-16T00:13:12;99563.56;;;23.88
45701;BMP280;36277;32.852;-116.998;2023-07-16T00:15:38;99562.22;;;24.24
45701;BMP280;36277;32.852;-116.998;2023-07-16T00:18:04;99559.78;;;24.55
45701;BMP280;36277;32.852;-116.998;2023-07-16T00:20:32;99556.63;;;24.84
45701;BMP280;36277;32.852;-116.998;2023-07-16T00:22:58;99556.63;;;24.84
45701;BMP280;36277;32.852;-116.998;2023-07-16T00:25:25;99557.91;;;24.88
45701;BMP280;36277;32.852;-116.998;2023-07-16T00:27:51;99556.00;;;24.95
45701;BMP280;36277;32.852;-116.998;2023-07-16T00:30:17;99558.72;;;25.08
45701;BMP280;36277;32.852;-116.998;2023-07-16T00:32:43;99556.63;;;25.23
45701;BMP280;36277;32.852;-116.998;2023-07-16T00:35:09;99556.38;;;25.37
45701;BMP280;36277;32.852;-116.998;2023-07-16T00:37:36;99561.66;;;25.51
45701;BMP280;36277;32.852;-116.998;2023-07-16T00:40:02;99565.03;;;25.66
45701;BMP280;36277;32.852;-116.998;2023-07-16T00:42:29;99565.44;;;25.70
45701;BMP280;36277;32.852;-116.998;2023-07-16T00:44:55;99559.53;;;25.53
45701;BMP280;36277;32.852;-116.998;2023-07-16T00:47:22;99558.72;;;25.33
45701;BMP280;36277;32.852;-116.998;2023-07-16T00:49:48;99572.94;;;25.11
45701;BMP280;36277;32.852;-116.998;2023-07-16T00:52:18;99570.63;;;24.63
45701;BMP280;36277;32.852;-116.998;2023-07-16T00:54:45;99573.31;;;24.43
45701;BMP280;36277;32.852;-116.998;2023-07-16T00:57:11;99577.28;;;24.15
45701;BMP280;36277;32.852;-116.998;2023-07-16T00:59:37;99572.97;;;24.06
45701;BMP280;36277;32.852;-116.998;2023-07-16T01:02:04;99560.47;;;23.63
45701;BMP280;36277;32.852;-116.998;2023-07-16T01:04:31;99562.50;;;23.48
45701;BMP280;36277;32.852;-116.998;2023-07-16T01:07:01;99552.22;;;23.29
45701;BMP280;36277;32.852;-116.998;2023-07-16T01:09:31;99563.97;;;23.10
45701;BMP280;36277;32.852;-116.998;2023-07-16T01:12:00;99558.88;;;23.41
45701;BMP280;36277;32.852;-116.998;2023-07-16T01:14:27;99555.97;;;23.96
45701;BMP280;36277;32.852;-116.998;2023-07-16T01:16:53;99555.69;;;24.31
45701;BMP280;36277;32.852;-116.998;2023-07-16T01:19:25;99562.75;;;24.60
45701;BMP280;36277;32.852;-116.998;2023-07-16T01:22:10;99563.00;;;24.91
45701;BMP280;36277;32.852;-116.998;2023-07-16T01:25:05;99571.03;;;24.66
45701;BMP280;36277;32.852;-116.998;2023-07-16T01:30:19;99567.75;;;23.77
45701;BMP280;36277;32.852;-116.998;2023-07-16T01:32:46;99567.19;;;23.54
45701;BMP280;36277;32.852;-116.998;2023-07-16T01:35:13;99575.41;;;23.41
45701;BMP280;36277;32.852;-116.998;2023-07-16T01:37:41;99578.34;;;23.74
45701;BMP280;36277;32.852;-116.998;2023-07-16T01:40:08;99576.81;;;24.12
45701;BMP280;36277;32.852;-116.998;2023-07-16T01:42:35;99576.47;;;24.40
45701;BMP280;36277;32.852;-116.998;2023-07-16T01:45:01;99572.97;;;24.72
45701;BMP280;36277;32.852;-116.998;2023-07-16T01:47:50;99567.66;;;25.03
45701;BMP280;36277;32.852;-116.998;2023-07-16T01:50:21;99581.22;;;24.85
45701;BMP280;36277;32.852;-116.998;2023-07-16T01:52:47;99588.22;;;24.62
45701;BMP280;36277;32.852;-116.998;2023-07-16T01:55:13;99575.81;;;24.25
45701;BMP280;36277;32.852;-116.998;2023-07-16T01:57:40;99582.56;;;23.76
45701;BMP280;36277;32.852;-116.998;2023-07-16T02:00:06;99584.94;;;23.45
45701;BMP280;36277;32.852;-116.998;2023-07-16T02:02:34;99578.03;;;23.96
45701;BMP280;36277;32.852;-116.998;2023-07-16T02:05:00;99579.00;;;24.35
45701;BMP280;36277;32.852;-116.998;2023-07-16T02:07:26;99572.72;;;24.61
45701;BMP280;36277;32.852;-116.998;2023-07-16T02:09:52;99575.50;;;24.87
45701;BMP280;36277;32.852;-116.998;2023-07-16T02:12:18;99571.91;;;25.06
45701;BMP280;36277;32.852;-116.998;2023-07-16T02:14:45;99575.50;;;25.26
45701;BMP280;36277;32.852;-116.998;2023-07-16T02:17:11;99579.09;;;25.39
45701;BMP280;36277;32.852;-116.998;2023-07-16T02:19:37;99578.44;;;25.56
45701;BMP280;36277;32.852;-116.998;2023-07-16T02:22:03;99578.63;;;25.68
45701;BMP280;36277;32.852;-116.998;2023-07-16T02:24:30;99589.69;;;25.81
45701;BMP280;36277;32.852;-116.998;2023-07-16T02:26:56;99582.00;;;25.89
45701;BMP280;36277;32.852;-116.998;2023-07-16T02:29:22;99580.22;;;26.01
45701;BMP280;36277;32.852;-116.998;2023-07-16T02:31:48;99594.69;;;26.10
45701;BMP280;36277;32.852;-116.998;2023-07-16T02:34:14;99593.13;;;26.20
45701;BMP280;36277;32.852;-116.998;2023-07-16T02:36:41;99597.56;;;26.28
45701;BMP280;36277;32.852;-116.998;2023-07-16T02:39:07;99593.69;;;26.35
45701;BMP280;36277;32.852;-116.998;2023-07-16T02:41:33;99597.28;;;26.42
45701;BMP280;36277;32.852;-116.998;2023-07-16T02:44:01;99593.19;;;26.51
45701;BMP280;36277;32.852;-116.998;2023-07-16T02:46:27;99600.41;;;26.58
45701;BMP280;36277;32.852;-116.998;2023-07-16T02:48:53;99611.88;;;26.62
45701;BMP280;36277;32.852;-116.998;2023-07-16T02:51:20;99608.84;;;26.70
45701;BMP280;36277;32.852;-116.998;2023-07-16T02:53:46;99607.09;;;26.75
45701;BMP280;36277;32.852;-116.998;2023-07-16T02:56:12;99606.22;;;26.81
45701;BMP280;36277;32.852;-116.998;2023-07-16T02:58:38;99608.28;;;26.86
45701;BMP280;36277;32.852;-116.998;2023-07-16T03:01:04;99606.78;;;26.90
45701;BMP280;36277;32.852;-116.998;2023-07-16T03:03:31;99614.19;;;26.96
45701;BMP280;36277;32.852;-116.998;2023-07-16T03:05:57;99617.16;;;27.01
45701;BMP280;36277;32.852;-116.998;2023-07-16T03:08:23;99617.53;;;27.04
45701;BMP280;36277;32.852;-116.998;2023-07-16T03:10:52;99608.56;;;27.09
45701;BMP280;36277;32.852;-116.998;2023-07-16T03:13:18;99603.44;;;27.12
45701;BMP280;36277;32.852;-116.998;2023-07-16T03:15:45;99603.84;;;27.16
45701;BMP280;36277;32.852;-116.998;2023-07-16T03:18:11;99600.38;;;27.20
45701;BMP280;36277;32.852;-116.998;2023-07-16T03:20:37;99600.78;;;27.24
45701;BMP280;36277;32.852;-116.998;2023-07-16T03:23:04;99605.00;;;27.26
45701;BMP280;36277;32.852;-116.998;2023-07-16T03:25:30;99603.50;;;27.30
45701;BMP280;36277;32.852;-116.998;2023-07-16T03:27:56;99604.94;;;27.33
45701;BMP280;36277;32.852;-116.998;2023-07-16T03:30:22;99606.81;;;27.39
45701;BMP280;36277;32.852;-116.998;2023-07-16T03:32:49;99607.00;;;27.44
45701;BMP280;36277;32.852;-116.998;2023-07-16T03:35:15;99611.00;;;27.48
45701;BMP280;36277;32.852;-116.998;2023-07-16T03:37:41;99615.47;;;27.49
45701;BMP280;36277;32.852;-116.998;2023-07-16T03:40:16;99609.00;;;27.54
45701;BMP280;36277;32.852;-116.998;2023-07-16T03:42:42;99616.22;;;27.55
45701;BMP280;36277;32.852;-116.998;2023-07-16T03:45:10;99616.03;;;27.57
45701;BMP280;36277;32.852;-116.998;2023-07-16T03:47:37;99621.94;;;27.60
45701;BMP280;36277;32.852;-116.998;2023-07-16T03:50:03;99623.19;;;27.64
45701;BMP280;36277;32.852;-116.998;2023-07-16T03:52:30;99628.06;;;27.69
45701;BMP280;36277;32.852;-116.998;2023-07-16T03:54:56;99622.94;;;27.72
45701;BMP280;36277;32.852;-116.998;2023-07-16T03:57:22;99621.41;;;27.76
45701;BMP280;36277;32.852;-116.998;2023-07-16T03:59:48;99624.38;;;27.75
45701;BMP280;36277;32.852;-116.998;2023-07-16T04:02:14;99633.56;;;27.75
45701;BMP280;36277;32.852;-116.998;2023-07-16T04:04:41;99631.88;;;27.74
45701;BMP280;36277;32.852;-116.998;2023-07-16T04:07:07;99639.13;;;27.75
45701;BMP280;36277;32.852;-116.998;2023-07-16T04:09:33;99643.34;;;27.78
45701;BMP280;36277;32.852;-116.998;2023-07-16T04:12:02;99638.88;;;27.77
45701;BMP280;36277;32.852;-116.998;2023-07-16T04:14:29;99644.19;;;27.78
45701;BMP280;36277;32.852;-116.998;2023-07-16T04:16:55;99639.22;;;27.87
45701;BMP280;36277;32.852;-116.998;2023-07-16T04:19:21;99633.56;;;27.75
45701;BMP280;36277;32.852;-116.998;2023-07-16T04:21:47;99646.19;;;27.47
45701;BMP280;36277;32.852;-116.998;2023-07-16T04:24:14;99648.31;;;27.45
45701;BMP280;36277;32.852;-116.998;2023-07-16T04:26:40;99652.13;;;27.51
45701;BMP280;36277;32.852;-116.998;2023-07-16T04:29:06;99656.59;;;27.52
45701;BMP280;36277;32.852;-116.998;2023-07-16T04:31:32;99658.53;;;27.27
45701;BMP280;36277;32.852;-116.998;2023-07-16T04:33:59;99662.06;;;26.72
45701;BMP280;36277;32.852;-116.998;2023-07-16T04:36:25;99661.44;;;26.20
45701;BMP280;36277;32.852;-116.998;2023-07-16T04:38:51;99665.16;;;25.81
45701;BMP280;36277;32.852;-116.998;2023-07-16T04:41:17;99669.44;;;25.32
45701;BMP280;36277;32.852;-116.998;2023-07-16T04:43:44;99676.47;;;25.22
45701;BMP280;36277;32.852;-116.998;2023-07-16T04:46:10;99675.34;;;25.10
45701;BMP280;36277;32.852;-116.998;2023-07-16T04:48:37;99675.19;;;25.24
45701;BMP280;36277;32.852;-116.998;2023-07-16T04:51:03;99689.97;;;24.97
45701;BMP280;36277;32.852;-116.998;2023-07-16T04:53:30;99691.84;;;24.77
45701;BMP280;36277;32.852;-116.998;2023-07-16T04:55:56;99686.13;;;24.79
45701;BMP280;36277;32.852;-116.998;2023-07-16T04:58:22;99684.81;;;24.75
45701;BMP280;36277;32.852;-116.998;2023-07-16T05:00:48;99696.78;;;24.95
45701;BMP280;36277;32.852;-116.998;2023-07-16T05:03:15;99698.13;;;25.31
45701;BMP280;36277;32.852;-116.998;2023-07-16T05:05:41;99698.13;;;25.50
45701;BMP280;36277;32.852;-116.998;2023-07-16T05:08:07;99695.78;;;25.73
45701;BMP280;36277;32.852;-116.998;2023-07-16T05:10:34;99692.59;;;25.89
45701;BMP280;36277;32.852;-116.998;2023-07-16T05:13:00;99687.22;;;26.07
45701;BMP280;36277;32.852;-116.998;2023-07-16T05:15:31;99699.75;;;26.16
45701;BMP280;36277;32.852;-116.998;2023-07-16T05:17:57;99695.06;;;26.23
45701;BMP280;36277;32.852;-116.998;2023-07-16T05:20:24;99687.38;;;26.32
45701;BMP280;36277;32.852;-116.998;2023-07-16T05:22:50;99681.34;;;26.41
45701;BMP280;36277;32.852;-116.998;2023-07-16T05:25:17;99684.75;;;26.49
45701;BMP280;36277;32.852;-116.998;2023-07-16T05:27:43;99684.09;;;26.54
45701;BMP280;36277;32.852;-116.998;2023-07-16T05:30:10;99686.38;;;26.63
45701;BMP280;36277;32.852;-116.998;2023-07-16T05:32:36;99680.41;;;26.66
45701;BMP280;36277;32.852;-116.998;2023-07-16T05:35:03;99679.53;;;26.72
45701;BMP280;36277;32.852;-116.998;2023-07-16T05:37:29;99673.94;;;26.79
45701;BMP280;36277;32.852;-116.998;2023-07-16T05:39:55;99673.50;;;26.82
45701;BMP280;36277;32.852;-116.998;2023-07-16T05:42:21;99666.25;;;26.87
45701;BMP280;36277;32.852;-116.998;2023-07-16T05:44:48;99682.84;;;26.87
45701;BMP280;36277;32.852;-116.998;2023-07-16T05:47:14;99684.09;;;26.91
45701;BMP280;36277;32.852;-116.998;2023-07-16T05:49:40;99676.06;;;26.77
45701;BMP280;36277;32.852;-116.998;2023-07-16T05:52:07;99682.94;;;26.18
45701;BMP280;36277;32.852;-116.998;2023-07-16T05:54:34;99684.31;;;25.37
45701;BMP280;36277;32.852;-116.998;2023-07-16T05:57:00;99695.91;;;24.81
45701;BMP280;36277;32.852;-116.998;2023-07-16T05:59:26;99696.31;;;24.72
45701;BMP280;36277;32.852;-116.998;2023-07-16T06:01:53;99692.25;;;24.21
45701;BMP280;36277;32.852;-116.998;2023-07-16T06:04:19;99684.72;;;24.02
45701;BMP280;36277;32.852;-116.998;2023-07-16T06:06:45;99690.44;;;23.73
45701;BMP280;36277;32.852;-116.998;2023-07-16T06:09:11;99686.13;;;23.37
45701;BMP280;36277;32.852;-116.998;2023-07-16T06:11:38;99690.97;;;23.07
45701;BMP280;36277;32.852;-116.998;2023-07-16T06:14:04;99691.47;;;22.97
45701;BMP280;36277;32.852;-116.998;2023-07-16T06:16:30;99694.34;;;22.68
45701;BMP280;36277;32.852;-116.998;2023-07-16T06:18:56;99691.44;;;22.55
45701;BMP280;36277;32.852;-116.998;2023-07-16T06:21:23;99685.59;;;22.29
45701;BMP280;36277;32.852;-116.998;2023-07-16T06:23:49;99682.50;;;22.03
45701;BMP280;36277;32.852;-116.998;2023-07-16T06:26:15;99684.69;;;21.93
45701;BMP280;36277;32.852;-116.998;2023-07-16T06:28:41;99677.31;;;21.79
45701;BMP280;36277;32.852;-116.998;2023-07-16T06:31:07;99678.06;;;21.59
45701;BMP280;36277;32.852;-116.998;2023-07-16T06:33:34;99689.66;;;21.46
45701;BMP280;36277;32.852;-116.998;2023-07-16T06:36:00;99685.50;;;21.50
45701;BMP280;36277;32.852;-116.998;2023-07-16T06:38:26;99687.94;;;21.45
45701;BMP280;36277;32.852;-116.998;2023-07-16T06:40:53;99681.72;;;21.51
45701;BMP280;36277;32.852;-116.998;2023-07-16T06:43:19;99682.53;;;21.23
45701;BMP280;36277;32.852;-116.998;2023-07-16T06:45:45;99683.75;;;21.86
45701;BMP280;36277;32.852;-116.998;2023-07-16T06:48:12;99682.13;;;22.35
45701;BMP280;36277;32.852;-116.998;2023-07-16T06:50:38;99683.34;;;22.68
45701;BMP280;36277;32.852;-116.998;2023-07-16T06:53:04;99682.75;;;22.93
45701;BMP280;36277;32.852;-116.998;2023-07-16T06:55:31;99678.13;;;22.94
45701;BMP280;36277;32.852;-116.998;2023-07-16T06:57:57;99676.44;;;22.57
45701;BMP280;36277;32.852;-116.998;2023-07-16T07:00:23;99670.66;;;22.17
45701;BMP280;36277;32.852;-116.998;2023-07-16T07:02:49;99670.44;;;21.46
45701;BMP280;36277;32.852;-116.998;2023-07-16T07:05:16;99673.22;;;21.75
45701;BMP280;36277;32.852;-116.998;2023-07-16T07:07:42;99683.97;;;22.20
45701;BMP280;36277;32.852;-116.998;2023-07-16T07:10:12;99689.34;;;22.57
45701;BMP280;36277;32.852;-116.998;2023-07-16T07:12:39;99694.47;;;22.81
45701;BMP280;36277;32.852;-116.998;2023-07-16T07:15:06;99694.47;;;23.01
45701;BMP280;36277;32.852;-116.998;2023-07-16T07:17:33;99697.19;;;23.16
45701;BMP280;36277;32.852;-116.998;2023-07-16T07:20:00;99697.69;;;22.84
45701;BMP280;36277;32.852;-116.998;2023-07-16T07:22:27;99690.03;;;22.30
45701;BMP280;36277;32.852;-116.998;2023-07-16T07:24:53;99689.91;;;21.59
45701;BMP280;36277;32.852;-116.998;2023-07-16T07:27:19;99690.28;;;21.85
45701;BMP280;36277;32.852;-116.998;2023-07-16T07:29:45;99701.94;;;22.01
45701;BMP280;36277;32.852;-116.998;2023-07-16T07:32:12;99700.38;;;22.42
45701;BMP280;36277;32.852;-116.998;2023-07-16T07:34:41;99695.41;;;22.67
45701;BMP280;36277;32.852;-116.998;2023-07-16T07:37:07;99687.53;;;22.85
45701;BMP280;36277;32.852;-116.998;2023-07-16T07:39:34;99691.72;;;23.01
45701;BMP280;36277;32.852;-116.998;2023-07-16T07:42:00;99690.47;;;23.18
45701;BMP280;36277;32.852;-116.998;2023-07-16T07:44:26;99692.66;;;23.29
45701;BMP280;36277;32.852;-116.998;2023-07-16T07:46:53;99691.94;;;23.21
45701;BMP280;36277;32.852;-116.998;2023-07-16T07:49:19;99694.34;;;23.30
45701;BMP280;36277;32.852;-116.998;2023-07-16T07:51:45;99699.25;;;23.35
45701;BMP280;36277;32.852;-116.998;2023-07-16T07:54:13;99696.19;;;23.44
45701;BMP280;36277;32.852;-116.998;2023-07-16T07:56:39;99699.16;;;23.49
45701;BMP280;36277;32.852;-116.998;2023-07-16T07:59:05;99691.41;;;23.59
45701;BMP280;36277;32.852;-116.998;2023-07-16T08:01:31;99684.25;;;23.65
45701;BMP280;36277;32.852;-116.998;2023-07-16T08:03:58;99687.22;;;23.63
45701;BMP280;36277;32.852;-116.998;2023-07-16T08:06:24;99684.25;;;23.37
45701;BMP280;36277;32.852;-116.998;2023-07-16T08:08:50;99690.91;;;23.22
45701;BMP280;36277;32.852;-116.998;2023-07-16T08:11:16;99694.09;;;23.04
45701;BMP280;36277;32.852;-116.998;2023-07-16T08:13:42;99696.09;;;23.10
45701;BMP280;36277;32.852;-116.998;2023-07-16T08:16:09;99691.94;;;23.21
45701;BMP280;36277;32.852;-116.998;2023-07-16T08:18:35;99690.34;;;23.33
45701;BMP280;36277;32.852;-116.998;2023-07-16T08:21:01;99681.50;;;23.37
45701;BMP280;36277;32.852;-116.998;2023-07-16T08:23:28;99680.28;;;23.46
45701;BMP280;36277;32.852;-116.998;2023-07-16T08:25:54;99683.50;;;23.50
45701;BMP280;36277;32.852;-116.998;2023-07-16T08:28:20;99679.09;;;23.55
45701;BMP280;36277;32.852;-116.998;2023-07-16T08:30:47;99683.81;;;23.61
45701;BMP280;36277;32.852;-116.998;2023-07-16T08:33:16;99682.09;;;23.60
45701;BMP280;36277;32.852;-116.998;2023-07-16T08:35:42;99677.97;;;23.43
45701;BMP280;36277;32.852;-116.998;2023-07-16T08:38:08;99676.41;;;22.93
45701;BMP280;36277;32.852;-116.998;2023-07-16T08:40:39;99677.56;;;22.42
45701;BMP280;36277;32.852;-116.998;2023-07-16T08:43:06;99679.53;;;22.19
45701;BMP280;36277;32.852;-116.998;2023-07-16T08:45:40;99680.38;;;22.69
45701;BMP280;36277;32.852;-116.998;2023-07-16T08:48:08;99677.97;;;22.81
45701;BMP280;36277;32.852;-116.998;2023-07-16T08:50:35;99677.69;;;22.97
45701;BMP280;36277;32.852;-116.998;2023-07-16T08:53:05;99674.91;;;23.11
45701;BMP280;36277;32.852;-116.998;2023-07-16T08:55:32;99677.31;;;23.20
45701;BMP280;36277;32.852;-116.998;2023-07-16T08:57:59;99676.53;;;23.26
45701;BMP280;36277;32.852;-116.998;2023-07-16T09:00:26;99675.13;;;23.37
45701;BMP280;36277;32.852;-116.998;2023-07-16T09:02:55;99680.50;;;23.45
45701;BMP280;36277;32.852;-116.998;2023-07-16T09:05:22;99686.97;;;23.31
45701;BMP280;36277;32.852;-116.998;2023-07-16T09:07:49;99683.75;;;22.86
45701;BMP280;36277;32.852;-116.998;2023-07-16T09:10:16;99676.16;;;22.17
45701;BMP280;36277;32.852;-116.998;2023-07-16T09:12:46;99674.19;;;21.82
45701;BMP280;36277;32.852;-116.998;2023-07-16T09:15:17;99670.13;;;22.28
45701;BMP280;36277;32.852;-116.998;2023-07-16T09:17:48;99677.41;;;22.50
45701;BMP280;36277;32.852;-116.998;2023-07-16T09:20:16;99667.22;;;22.65
45701;BMP280;36277;32.852;-116.998;2023-07-16T09:22:43;99670.22;;;22.70
45701;BMP280;36277;32.852;-116.998;2023-07-16T09:25:10;99666.56;;;22.84
45701;BMP280;36277;32.852;-116.998;2023-07-16T09:27:37;99659.25;;;22.91
45701;BMP280;36277;32.852;-116.998;2023-07-16T09:30:07;99652.81;;;23.04
45701;BMP280;36277;32.852;-116.998;2023-07-16T09:32:37;99652.44;;;23.07
45701;BMP280;36277;32.852;-116.998;2023-07-16T09:35:12;99654.25;;;23.21
45701;BMP280;36277;32.852;-116.998;2023-07-16T09:37:39;99656.59;;;23.24
45701;BMP280;36277;32.852;-116.998;2023-07-16T09:40:10;99658.78;;;23.29
45701;BMP280;36277;32.852;-116.998;2023-07-16T09:42:38;99657.16;;;22.93
45701;BMP280;36277;32.852;-116.998;2023-07-16T09:45:06;99660.88;;;22.14
45701;BMP280;36277;32.852;-116.998;2023-07-16T09:47:34;99668.69;;;21.96
45701;BMP280;36277;32.852;-116.998;2023-07-16T09:50:02;99670.13;;;22.28
45701;BMP280;36277;32.852;-116.998;2023-07-16T09:52:28;99670.41;;;22.47
45701;BMP280;36277;32.852;-116.998;2023-07-16T09:55:01;99667.22;;;22.65
45701;BMP280;36277;32.852;-116.998;2023-07-16T09:57:32;99649.91;;;22.71
45701;BMP280;36277;32.852;-116.998;2023-07-16T10:00:02;99652.38;;;22.80
45701;BMP280;36277;32.852;-116.998;2023-07-16T10:02:35;99649.94;;;22.92
45701;BMP280;36277;32.852;-116.998;2023-07-16T10:07:40;99650.03;;;23.04
45701;BMP280;36277;32.852;-116.998;2023-07-16T10:10:10;99644.06;;;23.15
45701;BMP280;36277;32.852;-116.998;2023-07-16T10:12:37;99649.16;;;23.18
45701;BMP280;36277;32.852;-116.998;2023-07-16T10:15:05;99657.25;;;23.26
45701;BMP280;36277;32.852;-116.998;2023-07-16T10:17:32;99653.97;;;23.37
45701;BMP280;36277;32.852;-116.998;2023-07-16T10:20:08;99637.50;;;23.50
45701;BMP280;36277;32.852;-116.998;2023-07-16T10:22:40;99643.75;;;23.31
45701;BMP280;36277;32.852;-116.998;2023-07-16T10:27:50;99642.19;;;22.39
45701;BMP280;36277;32.852;-116.998;2023-07-16T10:30:16;99637.53;;;22.39
45701;BMP280;36277;32.852;-116.998;2023-07-16T10:32:44;99637.22;;;22.70
45701;BMP280;36277;32.852;-116.998;2023-07-16T10:35:11;99641.94;;;22.76
45701;BMP280;36277;32.852;-116.998;2023-07-16T10:37:39;99633.75;;;22.82
45701;BMP280;36277;32.852;-116.998;2023-07-16T10:40:09;99633.63;;;22.90
45701;BMP280;36277;32.852;-116.998;2023-07-16T10:42:36;99647.19;;;22.92
45701;BMP280;36277;32.852;-116.998;2023-07-16T10:45:04;99654.50;;;23.05
45701;BMP280;36277;32.852;-116.998;2023-07-16T10:47:35;99654.16;;;23.08
45701;BMP280;36277;32.852;-116.998;2023-07-16T10:50:07;99662.28;;;23.16
45701;BMP280;36277;32.852;-116.998;2023-07-16T10:52:35;99660.34;;;23.17
45701;BMP280;36277;32.852;-116.998;2023-07-16T10:55:01;99659.09;;;23.19
45701;BMP280;36277;32.852;-116.998;2023-07-16T10:57:28;99666.38;;;23.27
45701;BMP280;36277;32.852;-116.998;2023-07-16T10:59:57;99658.81;;;23.35
45701;BMP280;36277;32.852;-116.998;2023-07-16T11:02:24;99668.38;;;23.39
45701;BMP280;36277;32.852;-116.998;2023-07-16T11:04:51;99670.94;;;23.41
45701;BMP280;36277;32.852;-116.998;2023-07-16T11:07:22;99663.75;;;23.46
45701;BMP280;36277;32.852;-116.998;2023-07-16T11:09:50;99668.38;;;23.39
45701;BMP280;36277;32.852;-116.998;2023-07-16T11:12:19;99673.25;;;23.37
45701;BMP280;36277;32.852;-116.998;2023-07-16T11:14:55;99677.03;;;23.36
45701;BMP280;36277;32.852;-116.998;2023-07-16T11:17:23;99680.19;;;23.33
45701;BMP280;36277;32.852;-116.998;2023-07-16T11:19:54;99673.31;;;23.50
45701;BMP280;36277;32.852;-116.998;2023-07-16T11:22:27;99679.09;;;23.55
45701;BMP280;36277;32.852;-116.998;2023-07-16T11:24:54;99679.78;;;23.64
45701;BMP280;36277;32.852;-116.998;2023-07-16T11:27:22;99688.66;;;23.59
45701;BMP280;36277;32.852;-116.998;2023-07-16T11:30:00;99679.59;;;23.65
45701;BMP280;36277;32.852;-116.998;2023-07-16T11:34:57;99699.09;;;23.70
45701;BMP280;36277;32.852;-116.998;2023-07-16T11:37:31;99706.41;;;23.78
45701;BMP280;36277;32.852;-116.998;2023-07-16T11:39:58;99695.56;;;23.76
45701;BMP280;36277;32.852;-116.998;2023-07-16T11:42:35;99690.97;;;23.83
45701;BMP280;36277;32.852;-116.998;2023-07-16T11:45:02;99696.09;;;23.86
45701;BMP280;36277;32.852;-116.998;2023-07-16T11:47:30;99696.69;;;23.82
45701;BMP280;36277;32.852;-116.998;2023-07-16T11:49:57;99693.47;;;23.78
45701;BMP280;36277;32.852;-116.998;2023-07-16T11:52:27;99698.84;;;23.86
45701;BMP280;36277;32.852;-116.998;2023-07-16T11:54:56;99703.03;;;23.82
45701;BMP280;36277;32.852;-116.998;2023-07-16T11:57:25;99705.16;;;23.80
45701;BMP280;36277;32.852;-116.998;2023-07-16T11:59:51;99710.66;;;23.80
45701;BMP280;36277;32.852;-116.998;2023-07-16T12:02:18;99699.91;;;23.85
45701;BMP280;36277;32.852;-116.998;2023-07-16T12:04:44;99703.94;;;23.89
45701;BMP280;36277;32.852;-116.998;2023-07-16T12:07:10;99705.28;;;24.00
45701;BMP280;36277;32.852;-116.998;2023-07-16T12:09:36;99705.28;;;24.00
45701;BMP280;36277;32.852;-116.998;2023-07-16T12:12:03;99705.25;;;23.93
45701;BMP280;36277;32.852;-116.998;2023-07-16T12:14:30;99692.75;;;23.97
45701;BMP280;36277;32.852;-116.998;2023-07-16T12:16:56;99698.75;;;24.07
45701;BMP280;36277;32.852;-116.998;2023-07-16T12:19:24;99699.97;;;23.98
45701;BMP280;36277;32.852;-116.998;2023-07-16T12:21:50;99702.06;;;23.96
45701;BMP280;36277;32.852;-116.998;2023-07-16T12:24:17;99720.13;;;23.99
45701;BMP280;36277;32.852;-116.998;2023-07-16T12:26:43;99715.66;;;23.98
45701;BMP280;36277;32.852;-116.998;2023-07-16T12:29:09;99719.50;;;24.03
45701;BMP280;36277;32.852;-116.998;2023-07-16T12:31:36;99725.00;;;24.03
45701;BMP280;36277;32.852;-116.998;2023-07-16T12:34:03;99737.75;;;24.04
45701;BMP280;36277;32.852;-116.998;2023-07-16T12:36:30;99735.84;;;24.05
45701;BMP280;36277;32.852;-116.998;2023-07-16T12:38:56;99731.84;;;24.07
45701;BMP280;36277;32.852;-116.998;2023-07-16T12:41:23;99728.03;;;24.08
45701;BMP280;36277;32.852;-116.998;2023-07-16T12:43:49;99729.06;;;24.07
45701;BMP280;36277;32.852;-116.998;2023-07-16T12:46:15;99724.22;;;24.09
45701;BMP280;36277;32.852;-116.998;2023-07-16T12:48:41;99732.69;;;24.08
45701;BMP280;36277;32.852;-116.998;2023-07-16T12:51:09;99730.78;;;24.08
45701;BMP280;36277;32.852;-116.998;2023-07-16T12:53:35;99733.31;;;24.10
45701;BMP280;36277;32.852;-116.998;2023-07-16T12:56:01;99732.72;;;24.14
45701;BMP280;36277;32.852;-116.998;2023-07-16T13:00:54;99727.63;;;24.11
45701;BMP280;36277;32.852;-116.998;2023-07-16T13:03:20;99732.25;;;24.11
45701;BMP280;36277;32.852;-116.998;2023-07-16T13:05:47;99731.44;;;24.10
45701;BMP280;36277;32.852;-116.998;2023-07-16T13:08:14;99739.31;;;24.19
45701;BMP280;36277;32.852;-116.998;2023-07-16T13:10:40;99729.09;;;24.13
45701;BMP280;36277;32.852;-116.998;2023-07-16T13:13:07;99732.91;;;24.13
45701;BMP280;36277;32.852;-116.998;2023-07-16T13:15:34;99724.25;;;24.15
45701;BMP280;36277;32.852;-116.998;2023-07-16T13:20:26;99726.56;;;24.12
45701;BMP280;36277;32.852;-116.998;2023-07-16T13:22:54;99723.59;;;24.13
45701;BMP280;36277;32.852;-116.998;2023-07-16T13:25:20;99733.38;;;24.16
45701;BMP280;36277;32.852;-116.998;2023-07-16T13:27:47;99736.97;;;24.16
45701;BMP280;36277;32.852;-116.998;2023-07-16T13:30:14;99735.72;;;24.19
45701;BMP280;36277;32.852;-116.998;2023-07-16T13:32:40;99740.38;;;24.18
45701;BMP280;36277;32.852;-116.998;2023-07-16T13:35:07;99745.72;;;24.20
45701;BMP280;36277;32.852;-116.998;2023-07-16T13:37:33;99740.19;;;24.20
45701;BMP280;36277;32.852;-116.998;2023-07-16T13:40:00;99745.50;;;24.21
45701;BMP280;36277;32.852;-116.998;2023-07-16T13:42:26;99743.56;;;24.22
45701;BMP280;36277;32.852;-116.998;2023-07-16T13:44:53;99741.06;;;24.27
45701;BMP280;36277;32.852;-116.998;2023-07-16T13:47:19;99751.22;;;24.20